Time;durP1;ratioP1;P1;durP2;ratioP2;P2;SDS_P1;SDS_P2;PMS_P1;PMS_P2;Temp;Humidity;BMP_temperature;BMP_pressure;BME280_temperature;BME280_humidity;BME280_pressure;Samples;Min_cycle;Max_cycle;Signal;HPM_P1;HPM_P2
2023/07/08 00:00:40;;;;;;;4.80;4.37;;;25.30;48.00;;;;;;4994591;28;20184;-69
2023/07/08 00:03:05;;;;;;;5.90;4.90;;;25.30;48.00;;;;;;4994901;28;20426;-68
2023/07/08 00:05:31;;;;;;;5.10;4.20;;;25.30;48.00;;;;;;4994727;28;20191;-68
2023/07/08 00:07:57;;;;;;;4.23;3.80;;;25.30;48.00;;;;;;4994508;28;20196;-68
2023/07/08 00:10:25;;;;;;;4.67;4.17;;;25.30;48.00;;;;;;4994104;28;20518;-68
2023/07/08 00:12:53;;;;;;;8.50;4.77;;;25.30;48.00;;;;;;4994612;28;20227;-67
2023/07/08 00:15:22;;;;;;;5.23;4.80;;;25.30;47.90;;;;;;4994488;28;20516;-68
2023/07/08 00:17:47;;;;;;;5.17;4.67;;;25.30;47.90;;;;;;4994355;28;20432;-68
2023/07/08 00:20:17;;;;;;;6.40;4.57;;;25.20;47.90;;;;;;4994641;28;20423;-67
2023/07/08 00:22:46;;;;;;;5.90;4.00;;;25.30;47.90;;;;;;4994181;28;20177;-69
2023/07/08 00:25:14;;;;;;;4.87;4.47;;;25.30;47.90;;;;;;4994470;28;20432;-67
2023/07/08 00:27:40;;;;;;;5.00;4.50;;;25.30;47.90;;;;;;4994131;28;20554;-67
2023/07/08 00:30:24;;;;;;;5.10;4.60;;;25.30;47.90;;;;;;4994160;28;20539;-70
2023/07/08 00:32:53;;;;;;;4.67;4.27;;;25.30;47.90;;;;;;4994255;28;20164;-69
2023/07/08 00:35:41;;;;;;;4.77;4.37;;;25.20;47.90;;;;;;4994084;28;20412;-69
2023/07/08 00:38:30;;;;;;;5.10;4.60;;;25.30;48.00;;;;;;4993021;28;20439;-69
2023/07/08 00:41:08;;;;;;;4.83;4.43;;;25.20;47.90;;;;;;4994054;28;20405;-69
2023/07/08 00:43:40;;;;;;;5.40;4.90;;;25.20;47.80;;;;;;4993867;28;20415;-68
2023/07/08 00:46:23;;;;;;;5.30;4.80;;;25.20;47.90;;;;;;4993786;28;20863;-68
2023/07/08 00:48:51;;;;;;;5.47;4.97;;;25.20;47.80;;;;;;4993957;28;20408;-67
2023/07/08 00:51:19;;;;;;;4.47;3.87;;;25.20;47.80;;;;;;4992366;28;20417;-68
2023/07/08 00:53:44;;;;;;;4.87;4.37;;;25.20;47.80;;;;;;4993533;28;20550;-68
2023/07/08 00:56:39;;;;;;;5.30;4.80;;;25.20;47.80;;;;;;4992205;28;20853;-68
2023/07/08 00:59:15;;;;;;;5.30;4.80;;;25.20;47.70;;;;;;4993457;28;20180;-68
2023/07/08 01:01:44;;;;;;;5.10;3.77;;;25.20;47.80;;;;;;4993505;28;20458;-68
2023/07/08 01:04:18;;;;;;;5.27;4.77;;;25.20;47.70;;;;;;4993599;28;20432;-68
2023/07/08 01:06:52;;;;;;;4.97;4.47;;;25.20;47.90;;;;;;4992220;28;20444;-68
2023/07/08 01:09:18;;;;;;;4.47;3.90;;;25.20;47.90;;;;;;4993434;28;20494;-69
2023/07/08 01:11:44;;;;;;;4.80;4.30;;;25.20;48.00;;;;;;5024859;28;20842;-68
2023/07/08 01:14:15;;;;;;;4.43;3.73;;;25.20;47.90;;;;;;4993331;28;20234;-68
2023/07/08 01:16:41;;;;;;;4.40;4.00;;;25.20;47.90;;;;;;4993209;28;20434;-68
2023/07/08 01:19:18;;;;;;;4.33;3.77;;;25.20;48.00;;;;;;4993449;28;20420;-68
2023/07/08 01:21:53;;;;;;;5.30;4.40;;;25.20;48.00;;;;;;4992844;28;20552;-67
2023/07/08 01:24:19;;;;;;;4.50;4.00;;;25.20;48.00;;;;;;4993044;28;20427;-67
2023/07/08 01:26:45;;;;;;;4.63;4.20;;;25.20;47.90;;;;;;4993033;28;20954;-68
2023/07/08 01:29:12;;;;;;;6.73;5.10;;;25.20;48.00;;;;;;5024179;28;20201;-67
2023/07/08 01:31:38;;;;;;;5.90;4.00;;;25.20;47.90;;;;;;4993272;28;20830;-69
2023/07/08 01:34:05;;;;;;;6.30;4.70;;;25.20;48.00;;;;;;4992928;28;20905;-68
2023/07/08 01:36:38;;;;;;;5.50;5.00;;;25.20;47.90;;;;;;4992857;28;20885;-68
2023/07/08 01:39:04;;;;;;;5.07;4.67;;;25.20;47.90;;;;;;4993129;28;20392;-68
2023/07/08 01:41:29;;;;;;;5.00;4.27;;;25.20;47.90;;;;;;4993132;28;20913;-68
2023/07/08 01:43:55;;;;;;;4.87;4.37;;;25.20;47.90;;;;;;4992915;28;20280;-68
2023/07/08 01:46:24;;;;;;;4.83;4.37;;;25.20;47.90;;;;;;4992744;28;20173;-69
2023/07/08 01:48:56;;;;;;;6.93;4.33;;;25.30;48.00;;;;;;4991463;28;20173;-68
2023/07/08 01:51:23;;;;;;;5.30;4.80;;;25.20;47.80;;;;;;4992793;28;20488;-69
2023/07/08 01:53:48;;;;;;;5.00;4.43;;;25.20;47.90;;;;;;4991421;28;20439;-68
2023/07/08 01:56:15;;;;;;;5.30;4.80;;;25.30;48.00;;;;;;4992970;28;20412;-68
2023/07/08 01:58:41;;;;;;;4.73;4.27;;;25.20;48.00;;;;;;4992719;28;20586;-67
2023/07/08 02:01:07;;;;;;;4.50;4.10;;;25.20;48.00;;;;;;4992846;28;20436;-69
2023/07/08 02:03:33;;;;;;;5.23;4.50;;;25.30;48.00;;;;;;4992648;28;20940;-68
2023/07/08 02:05:58;;;;;;;5.13;4.73;;;25.30;48.00;;;;;;4992437;28;20424;-68
2023/07/08 02:08:25;;;;;;;5.63;5.00;;;25.30;48.60;;;;;;4992638;28;20275;-70
2023/07/08 02:10:57;;;;;;;4.30;3.90;;;25.30;48.00;;;;;;4992426;28;20566;-69
2023/07/08 02:13:23;;;;;;;5.13;4.63;;;25.30;48.00;;;;;;4992412;28;20495;-69
2023/07/08 02:15:50;;;;;;;4.37;4.00;;;25.30;48.00;;;;;;4992596;28;20734;-69
2023/07/08 02:18:15;;;;;;;4.93;4.43;;;25.30;48.00;;;;;;4992212;28;20432;-67
2023/07/08 02:20:42;;;;;;;4.50;4.10;;;25.30;48.00;;;;;;4992098;28;20498;-67
2023/07/08 02:23:08;;;;;;;5.03;4.57;;;25.30;47.90;;;;;;4992104;28;20180;-68
2023/07/08 02:25:34;;;;;;;5.70;4.93;;;25.30;47.70;;;;;;4992104;28;20404;-67
2023/07/08 02:27:59;;;;;;;5.10;4.60;;;25.30;47.70;;;;;;4992199;28;20555;-68
2023/07/08 02:30:26;;;;;;;5.10;4.70;;;25.30;47.70;;;;;;5023417;28;20211;-68
2023/07/08 02:32:57;;;;;;;6.20;5.10;;;25.30;47.70;;;;;;4992046;28;20169;-68
2023/07/08 02:35:26;;;;;;;5.63;5.13;;;25.20;47.70;;;;;;4992055;28;20398;-68
2023/07/08 02:37:52;;;;;;;5.03;4.53;;;25.20;47.70;;;;;;4991973;28;20479;-68
2023/07/08 02:40:18;;;;;;;6.60;5.57;;;25.20;47.80;;;;;;4991997;28;20408;-69
2023/07/08 02:42:43;;;;;;;6.00;5.00;;;25.20;47.80;;;;;;4991989;28;20503;-68
2023/07/08 02:45:09;;;;;;;5.13;4.63;;;25.20;47.80;;;;;;4992153;28;20225;-69
2023/07/08 02:47:35;;;;;;;6.20;5.23;;;25.20;47.80;;;;;;4992126;28;20231;-68
2023/07/08 02:50:01;;;;;;;5.70;5.07;;;25.20;47.80;;;;;;4991861;28;20526;-69
2023/07/08 02:52:26;;;;;;;5.17;4.50;;;25.20;47.80;;;;;;4991856;28;20279;-69
2023/07/08 02:54:52;;;;;;;5.00;4.60;;;25.20;47.70;;;;;;4991871;28;20551;-69
2023/07/08 02:57:17;;;;;;;5.20;4.70;;;25.20;47.70;;;;;;5023063;28;20212;-68
2023/07/08 02:59:43;;;;;;;5.30;4.80;;;25.20;47.70;;;;;;4991765;28;20269;-69
2023/07/08 03:02:08;;;;;;;5.80;5.00;;;25.20;47.70;;;;;;4991605;28;20196;-69
2023/07/08 03:04:38;;;;;;;5.20;4.70;;;25.20;47.70;;;;;;5023200;28;20276;-69
2023/07/08 03:07:04;;;;;;;5.90;5.17;;;25.20;47.70;;;;;;4992145;28;20201;-67
2023/07/08 03:09:32;;;;;;;5.70;5.20;;;25.20;47.70;;;;;;4991774;28;20447;-68
2023/07/08 03:11:58;;;;;;;5.97;5.37;;;25.20;47.80;;;;;;4991523;28;20218;-68
2023/07/08 03:14:24;;;;;;;5.10;4.60;;;25.20;47.70;;;;;;4991669;28;20463;-67
2023/07/08 03:16:50;;;;;;;5.67;5.03;;;25.20;47.50;;;;;;4991414;28;20432;-68
2023/07/08 03:19:17;;;;;;;5.97;5.37;;;25.20;47.40;;;;;;4991328;28;20208;-68
2023/07/08 03:21:43;;;;;;;6.10;4.80;;;25.20;47.40;;;;;;4991615;28;20169;-68
2023/07/08 03:24:12;;;;;;;6.43;5.50;;;25.20;47.40;;;;;;4991462;28;20418;-68
2023/07/08 03:26:38;;;;;;;5.80;5.27;;;25.20;47.20;;;;;;4991265;28;20424;-68
2023/07/08 03:29:04;;;;;;;5.10;4.60;;;25.20;47.20;;;;;;4991271;28;20408;-68
2023/07/08 03:31:30;;;;;;;5.80;5.10;;;25.20;47.20;;;;;;4991824;28;20177;-66
2023/07/08 03:33:56;;;;;;;5.37;4.87;;;25.20;47.10;;;;;;4991246;28;20419;-68
2023/07/08 03:36:24;;;;;;;5.73;4.97;;;25.20;47.00;;;;;;4991475;28;20162;-67
2023/07/08 03:38:56;;;;;;;5.30;4.83;;;25.20;47.00;;;;;;4991546;28;20310;-68
2023/07/08 03:41:22;;;;;;;7.27;5.03;;;25.10;46.90;;;;;;4991731;28;20491;-68
2023/07/08 03:43:47;;;;;;;5.00;4.50;;;25.10;46.90;;;;;;4991377;28;20514;-66
2023/07/08 03:46:14;;;;;;;5.70;5.10;;;25.10;47.00;;;;;;4993143;28;21402;-68
2023/07/08 03:48:40;;;;;;;5.30;4.90;;;25.10;47.00;;;;;;4994752;28;20215;-68
2023/07/08 03:51:21;;;;;;;5.47;4.97;;;25.10;47.00;;;;;;4994630;28;20998;-68
2023/07/08 03:53:47;;;;;;;5.47;4.97;;;25.10;47.00;;;;;;4993706;28;20473;-68
2023/07/08 03:56:13;;;;;;;5.70;4.87;;;25.10;47.00;;;;;;4994711;28;20972;-68
2023/07/08 03:58:39;;;;;;;5.43;4.87;;;25.10;47.00;;;;;;4994890;28;20503;-68
2023/07/08 04:01:05;;;;;;;5.10;4.60;;;25.10;47.00;;;;;;4994596;28;20485;-68
2023/07/08 04:03:30;;;;;;;5.20;4.70;;;25.10;46.90;;;;;;4994782;28;20985;-68
2023/07/08 04:05:56;;;;;;;5.50;4.90;;;25.10;46.90;;;;;;4994705;28;20793;-67
2023/07/08 04:08:21;;;;;;;6.07;5.10;;;25.10;47.00;;;;;;4994534;28;20193;-68
2023/07/08 04:10:47;;;;;;;7.30;5.30;;;25.10;47.10;;;;;;4994514;28;20615;-68
2023/07/08 04:13:12;;;;;;;4.80;4.40;;;25.10;47.20;;;;;;4994616;28;20169;-69
2023/07/08 04:15:38;;;;;;;4.40;4.00;;;25.10;47.30;;;;;;4993133;28;20658;-68
2023/07/08 04:18:04;;;;;;;5.20;4.70;;;25.10;47.40;;;;;;4994394;28;20189;-68
2023/07/08 04:20:29;;;;;;;5.63;5.10;;;25.10;47.40;;;;;;4994608;28;20177;-68
2023/07/08 04:22:55;;;;;;;6.23;5.17;;;25.10;47.40;;;;;;4994448;28;20207;-67
2023/07/08 04:25:21;;;;;;;5.00;4.50;;;25.10;47.40;;;;;;4994272;28;20181;-68
2023/07/08 04:27:47;;;;;;;5.83;5.33;;;25.10;47.50;;;;;;4994179;28;20692;-68
2023/07/08 04:30:22;;;;;;;5.60;5.00;;;25.10;47.50;;;;;;4994034;28;20451;-68
2023/07/08 04:32:50;;;;;;;5.93;5.33;;;25.10;47.40;;;;;;4994347;28;20424;-68
2023/07/08 04:35:15;;;;;;;5.33;4.83;;;25.10;47.40;;;;;;4994062;28;20451;-68
2023/07/08 04:37:41;;;;;;;4.97;4.50;;;25.10;47.50;;;;;;4993975;28;20467;-68
2023/07/08 04:40:16;;;;;;;6.00;4.90;;;25.10;47.50;;;;;;4993988;28;20256;-68
2023/07/08 04:42:42;;;;;;;5.30;4.73;;;25.10;47.50;;;;;;4994142;28;20641;-69
2023/07/08 04:45:08;;;;;;;6.40;5.87;;;25.10;47.50;;;;;;4992470;28;20428;-72
2023/07/08 04:47:33;;;;;;;5.20;4.70;;;25.20;47.50;;;;;;4993600;28;20670;-69
2023/07/08 04:49:59;;;;;;;4.97;4.47;;;25.20;47.40;;;;;;4992171;28;20232;-69
2023/07/08 04:52:25;;;;;;;4.43;3.87;;;25.20;47.40;;;;;;4993880;28;20264;-68
2023/07/08 04:54:50;;;;;;;5.03;4.50;;;25.20;47.30;;;;;;4993555;28;20619;-69
2023/07/08 04:57:16;;;;;;;5.33;4.83;;;25.20;47.20;;;;;;4992322;28;20675;-69
2023/07/08 04:59:42;;;;;;;5.63;5.13;;;25.20;47.20;;;;;;4993741;28;20185;-69
2023/07/08 05:02:08;;;;;;;5.30;4.80;;;25.20;47.20;;;;;;4993372;28;20515;-69
2023/07/08 05:04:33;;;;;;;5.70;5.13;;;25.20;47.10;;;;;;4993317;28;20677;-68
2023/07/08 05:06:59;;;;;;;5.20;4.70;;;25.20;47.10;;;;;;4993229;28;20215;-68
2023/07/08 05:09:25;;;;;;;6.10;5.20;;;25.20;47.10;;;;;;4993239;28;20197;-69
2023/07/08 05:11:52;;;;;;;5.20;4.63;;;25.20;47.00;;;;;;4993632;28;20660;-68
2023/07/08 05:14:17;;;;;;;5.17;4.67;;;25.20;47.00;;;;;;4993313;28;20814;-69
2023/07/08 05:16:43;;;;;;;4.93;4.33;;;25.20;47.00;;;;;;4993354;28;20478;-67
2023/07/08 05:19:09;;;;;;;5.97;5.40;;;25.20;47.00;;;;;;4993127;28;20698;-68
2023/07/08 05:21:35;;;;;;;5.47;4.97;;;25.20;47.00;;;;;;4993154;28;20170;-68
2023/07/08 05:24:02;;;;;;;6.03;4.87;;;25.20;47.00;;;;;;4993387;28;20425;-68
2023/07/08 05:26:28;;;;;;;5.40;4.57;;;25.20;47.00;;;;;;4993387;28;20173;-68
2023/07/08 05:28:54;;;;;;;5.43;4.93;;;25.20;47.00;;;;;;4993122;28;20783;-69
2023/07/08 05:31:20;;;;;;;5.23;4.73;;;25.20;47.10;;;;;;4992992;28;20417;-68
2023/07/08 05:33:45;;;;;;;6.17;5.17;;;25.20;47.20;;;;;;4993119;28;20183;-69
2023/07/08 05:36:11;;;;;;;6.00;4.87;;;25.20;47.30;;;;;;4993113;28;20216;-68
2023/07/08 05:38:37;;;;;;;6.43;5.40;;;25.20;47.30;;;;;;4992978;28;20606;-68
2023/07/08 05:41:02;;;;;;;7.13;5.00;;;25.20;47.30;;;;;;4993027;28;20180;-68
2023/07/08 05:43:28;;;;;;;5.20;4.70;;;25.20;47.40;;;;;;4993147;28;20669;-70
2023/07/08 05:45:59;;;;;;;5.20;4.70;;;25.20;47.50;;;;;;4992736;28;20173;-69
2023/07/08 05:48:24;;;;;;;4.80;4.40;;;25.20;47.40;;;;;;4992038;28;20667;-68
2023/07/08 05:50:50;;;;;;;5.10;4.70;;;25.20;47.50;;;;;;4992713;28;20542;-69
2023/07/08 05:53:19;;;;;;;5.10;4.70;;;25.20;47.50;;;;;;4992646;28;20518;-66
2023/07/08 05:55:45;;;;;;;4.70;4.20;;;25.20;47.50;;;;;;4992698;28;20204;-69
2023/07/08 05:58:10;;;;;;;5.73;5.23;;;25.20;47.50;;;;;;4992881;28;20436;-68
2023/07/08 06:00:36;;;;;;;5.30;4.60;;;25.20;47.50;;;;;;4991292;28;20595;-69
2023/07/08 06:03:02;;;;;;;5.43;4.93;;;25.20;47.50;;;;;;4992587;28;20672;-69
2023/07/08 06:05:28;;;;;;;5.07;4.67;;;25.30;47.60;;;;;;4992690;28;20412;-69
2023/07/08 06:07:54;;;;;;;5.80;5.30;;;25.20;47.50;;;;;;4992402;28;20263;-68
2023/07/08 06:10:19;;;;;;;5.77;5.17;;;25.20;47.50;;;;;;4992117;28;20948;-68
2023/07/08 06:12:45;;;;;;;4.53;4.13;;;25.30;47.50;;;;;;4992428;28;20177;-68
2023/07/08 06:15:12;;;;;;;5.20;4.20;;;25.30;47.50;;;;;;4992300;28;20181;-68
2023/07/08 06:17:37;;;;;;;6.00;5.10;;;25.30;47.40;;;;;;4992338;28;20255;-68
2023/07/08 06:20:04;;;;;;;5.10;4.20;;;25.30;47.40;;;;;;4992298;28;20448;-68
2023/07/08 06:22:29;;;;;;;4.47;4.00;;;25.30;47.40;;;;;;4992498;28;20177;-68
2023/07/08 06:24:55;;;;;;;5.80;4.80;;;25.30;47.30;;;;;;4992237;28;20412;-68
2023/07/08 06:27:20;;;;;;;4.97;4.30;;;25.20;47.30;;;;;;4992156;28;20716;-68
2023/07/08 06:29:46;;;;;;;5.17;4.70;;;25.30;47.40;;;;;;4992105;28;20228;-68
2023/07/08 06:32:11;;;;;;;8.57;4.20;;;25.30;47.40;;;;;;4992245;28;20169;-68
2023/07/08 06:34:37;;;;;;;4.93;4.47;;;25.20;47.30;;;;;;4992173;28;20231;-68
2023/07/08 06:37:03;;;;;;;5.03;4.53;;;25.30;47.40;;;;;;4991053;28;20752;-68
2023/07/08 06:39:28;;;;;;;5.93;5.30;;;25.30;47.40;;;;;;4992047;28;20264;-68
2023/07/08 06:41:54;;;;;;;5.60;4.80;;;25.30;47.50;;;;;;4991933;28;20638;-69
2023/07/08 06:44:19;;;;;;;5.77;5.17;;;25.30;47.50;;;;;;4991897;28;20239;-68
2023/07/08 06:46:45;;;;;;;5.63;5.00;;;25.20;47.50;;;;;;4991989;28;20246;-69
2023/07/08 06:49:12;;;;;;;5.23;4.73;;;25.20;47.60;;;;;;4991958;28;20260;-68
2023/07/08 06:51:37;;;;;;;4.93;4.50;;;25.30;47.60;;;;;;4990829;28;20177;-68
2023/07/08 06:54:04;;;;;;;5.20;4.70;;;25.30;47.60;;;;;;4992021;28;20457;-67
2023/07/08 06:56:31;;;;;;;5.67;5.07;;;25.30;47.60;;;;;;4991929;28;20223;-69
2023/07/08 06:58:57;;;;;;;5.03;4.50;;;25.30;47.70;;;;;;4992108;28;20810;-67
2023/07/08 07:01:22;;;;;;;4.23;3.83;;;25.30;47.60;;;;;;4991812;28;20424;-69
2023/07/08 07:03:48;;;;;;;4.77;4.20;;;25.30;47.60;;;;;;4991842;28;20415;-68
2023/07/08 07:06:13;;;;;;;4.97;4.57;;;25.30;47.70;;;;;;4990329;28;20235;-69
2023/07/08 07:08:39;;;;;;;5.10;4.10;;;25.30;47.70;;;;;;4991644;28;20200;-68
2023/07/08 07:11:05;;;;;;;4.80;4.30;;;25.30;47.70;;;;;;4991767;28;20201;-68
2023/07/08 07:13:32;;;;;;;5.40;4.90;;;25.30;47.70;;;;;;4990478;28;20252;-68
2023/07/08 07:15:57;;;;;;;5.33;4.50;;;25.30;47.70;;;;;;4991881;28;20173;-68
2023/07/08 07:18:23;;;;;;;6.70;4.90;;;25.30;47.70;;;;;;5023188;28;20451;-68
2023/07/08 07:20:52;;;;;;;4.80;4.40;;;25.30;47.70;;;;;;4993404;28;20196;-68
2023/07/08 07:23:18;;;;;;;5.13;4.63;;;25.30;47.70;;;;;;4995483;28;20646;-68
2023/07/08 07:25:47;;;;;;;5.33;4.33;;;25.30;47.70;;;;;;4993665;28;20506;-68
2023/07/08 07:28:13;;;;;;;5.17;4.67;;;25.30;47.70;;;;;;4995042;28;20715;-68
2023/07/08 07:30:39;;;;;;;4.80;4.40;;;25.30;47.70;;;;;;4995030;28;20487;-68
2023/07/08 07:33:04;;;;;;;4.83;4.33;;;25.30;47.70;;;;;;4986318;28;20459;-68
2023/07/08 07:35:30;;;;;;;5.40;4.90;;;25.30;47.70;;;;;;4983828;28;20169;-69
2023/07/08 07:37:56;;;;;;;5.93;5.00;;;25.30;47.70;;;;;;4985408;28;20197;-68
2023/07/08 07:40:21;;;;;;;4.80;4.37;;;25.30;47.70;;;;;;4985306;28;20232;-69
2023/07/08 07:42:47;;;;;;;4.87;4.37;;;25.30;47.70;;;;;;4984036;28;20620;-68
2023/07/08 07:45:13;;;;;;;4.80;4.17;;;25.30;47.70;;;;;;4985542;28;20181;-68
2023/07/08 07:47:39;;;;;;;5.50;4.90;;;25.30;47.70;;;;;;4977384;28;20259;-69
2023/07/08 07:50:06;;;;;;;5.00;4.50;;;25.30;47.70;;;;;;4974114;28;20477;-68
2023/07/08 07:52:33;;;;;;;4.97;4.47;;;25.30;48.30;;;;;;4974169;28;20542;-69
2023/07/08 07:54:58;;;;;;;5.37;4.30;;;25.30;47.80;;;;;;4975484;28;20422;-69
2023/07/08 07:57:25;;;;;;;4.90;4.40;;;25.30;47.70;;;;;;4975526;28;20437;-68
2023/07/08 07:59:50;;;;;;;5.47;4.87;;;25.30;47.80;;;;;;4975542;28;20208;-69
2023/07/08 08:02:17;;;;;;;5.23;4.60;;;25.30;47.80;;;;;;4975226;28;20445;-68
2023/07/08 08:04:42;;;;;;;5.17;4.67;;;25.30;47.80;;;;;;4975217;28;20189;-68
2023/07/08 08:07:08;;;;;;;4.53;4.13;;;25.30;47.80;;;;;;4975084;28;20445;-68
2023/07/08 08:09:33;;;;;;;4.60;4.20;;;25.30;47.80;;;;;;4975027;28;20210;-68
2023/07/08 08:12:02;;;;;;;4.10;3.70;;;25.40;47.90;;;;;;4975327;28;20657;-67
2023/07/08 08:14:28;;;;;;;3.80;3.50;;;25.40;47.90;;;;;;4975085;28;20635;-68
2023/07/08 08:16:53;;;;;;;4.20;3.77;;;25.40;47.90;;;;;;4974980;28;20441;-67
2023/07/08 08:19:19;;;;;;;5.27;4.20;;;25.40;47.90;;;;;;4974699;28;20181;-67
2023/07/08 08:21:45;;;;;;;4.47;4.03;;;25.30;47.80;;;;;;4974937;28;20189;-68
2023/07/08 08:24:10;;;;;;;4.67;4.03;;;25.40;47.90;;;;;;4974902;28;20232;-69
2023/07/08 08:26:36;;;;;;;4.53;4.13;;;25.40;47.90;;;;;;4974785;28;20178;-68
2023/07/08 08:29:02;;;;;;;4.20;3.80;;;25.40;47.90;;;;;;4974839;28;20611;-67
2023/07/08 08:31:28;;;;;;;3.97;3.63;;;25.40;47.90;;;;;;4974445;28;20182;-69
2023/07/08 08:33:53;;;;;;;4.10;3.70;;;25.40;47.90;;;;;;4974733;28;20416;-69
2023/07/08 08:36:20;;;;;;;4.30;3.90;;;25.40;47.90;;;;;;4973500;28;20213;-69
2023/07/08 08:38:46;;;;;;;4.97;4.47;;;25.40;47.90;;;;;;4974785;28;20166;-69
2023/07/08 08:41:18;;;;;;;4.00;3.60;;;25.40;48.00;;;;;;4974829;28;20957;-68
2023/07/08 08:43:47;;;;;;;4.47;3.90;;;25.40;47.90;;;;;;4974671;28;20185;-68
2023/07/08 08:46:40;;;;;;;4.63;4.17;;;25.40;48.00;;;;;;4974529;28;20417;-68
2023/07/08 08:49:34;;;;;;;4.27;3.87;;;25.40;48.00;;;;;;4974432;28;20424;-68
2023/07/08 08:52:00;;;;;;;4.40;4.00;;;25.40;48.00;;;;;;4974537;28;20456;-69
2023/07/08 08:54:26;;;;;;;4.67;4.13;;;25.40;48.10;;;;;;4974352;28;20445;-68
2023/07/08 08:57:28;;;;;;;4.50;4.03;;;25.40;48.10;;;;;;4973073;28;20233;-69
2023/07/08 08:59:56;;;;;;;3.50;3.17;;;25.40;48.00;;;;;;4974341;28;20173;-70
2023/07/08 09:03:01;;;;;;;5.27;4.13;;;25.40;48.10;;;;;;4973616;28;20433;-67
2023/07/08 09:05:27;;;;;;;4.20;3.63;;;25.40;48.10;;;;;;4974138;28;20508;-69
2023/07/08 09:08:12;;;;;;;4.00;3.60;;;25.40;48.10;;;;;;4974025;28;20520;-68
2023/07/08 09:10:56;;;;;;;4.00;3.50;;;25.40;48.10;;;;;;4974180;28;20244;-68
2023/07/08 09:13:27;;;;;;;3.90;3.60;;;25.40;48.10;;;;;;4974164;28;20468;-68
2023/07/08 09:16:15;;;;;;;4.30;3.90;;;25.40;48.10;;;;;;4974117;28;20393;-68
2023/07/08 09:19:00;;;;;;;3.87;3.57;;;25.40;48.10;;;;;;4973736;28;20808;-67
2023/07/08 09:21:43;;;;;;;4.53;4.13;;;25.40;48.10;;;;;;4972500;28;20782;-68
2023/07/08 09:24:31;;;;;;;4.30;3.90;;;25.40;48.10;;;;;;4973764;28;20476;-68
2023/07/08 09:27:00;;;;;;;4.40;4.00;;;25.40;48.10;;;;;;4972884;28;20480;-68
2023/07/08 09:29:26;;;;;;;5.03;4.60;;;25.40;48.10;;;;;;4973775;28;20516;-68
2023/07/08 09:31:52;;;;;;;3.90;3.60;;;25.40;48.10;;;;;;4973569;28;20413;-68
2023/07/08 09:34:25;;;;;;;5.57;3.80;;;25.40;48.10;;;;;;4973585;28;20414;-68
2023/07/08 09:36:51;;;;;;;4.10;3.70;;;25.50;48.20;;;;;;4973632;28;20297;-68
2023/07/08 09:39:20;;;;;;;4.13;3.73;;;25.50;48.20;;;;;;4973296;28;20423;-68
2023/07/08 09:41:47;;;;;;;4.77;3.97;;;25.40;48.10;;;;;;4973473;28;20412;-68
2023/07/08 09:44:28;;;;;;;5.20;3.93;;;25.50;48.10;;;;;;4973039;28;20420;-69
2023/07/08 09:46:55;;;;;;;4.60;3.90;;;25.50;48.10;;;;;;4973312;28;20451;-69
2023/07/08 09:49:27;;;;;;;5.13;3.80;;;25.50;48.20;;;;;;4973510;28;20504;-69
2023/07/08 09:51:53;;;;;;;4.20;3.33;;;25.50;48.20;;;;;;4973331;28;20394;-68
2023/07/08 09:54:23;;;;;;;4.03;3.63;;;25.50;48.10;;;;;;4973163;28;20413;-67
2023/07/08 09:56:58;;;;;;;4.77;4.23;;;25.50;48.10;;;;;;4973167;28;20432;-68
2023/07/08 09:59:34;;;;;;;3.70;3.40;;;25.50;48.70;;;;;;4973374;28;20404;-68
2023/07/08 10:02:03;;;;;;;4.00;3.60;;;25.50;48.20;;;;;;4973031;28;20455;-66
2023/07/08 10:04:29;;;;;;;6.13;4.10;;;25.50;48.20;;;;;;4973227;28;20439;-67
2023/07/08 10:06:55;;;;;;;3.50;3.10;;;25.50;48.20;;;;;;4973222;28;20833;-67
2023/07/08 10:09:24;;;;;;;3.87;3.47;;;25.50;48.20;;;;;;4973461;28;20506;-68
2023/07/08 10:12:02;;;;;;;4.03;3.63;;;25.50;48.20;;;;;;4973459;28;20227;-67
2023/07/08 10:14:36;;;;;;;4.00;3.33;;;25.50;48.10;;;;;;4973526;28;20390;-67
2023/07/08 10:17:02;;;;;;;6.80;4.07;;;25.50;48.20;;;;;;4973296;28;20431;-67
2023/07/08 10:19:27;;;;;;;5.30;3.50;;;25.50;48.20;;;;;;4973722;28;20414;-68
2023/07/08 10:22:22;;;;;;;3.70;3.17;;;25.50;48.20;;;;;;4973474;28;20601;-68
2023/07/08 10:25:12;;;;;;;4.57;4.17;;;25.50;48.10;;;;;;4973300;28;20200;-68
2023/07/08 10:27:57;;;;;;;3.77;3.43;;;25.50;48.20;;;;;;4973241;28;20463;-68
2023/07/08 10:30:27;;;;;;;4.10;3.50;;;25.40;48.20;;;;;;4973219;28;20518;-68
2023/07/08 10:33:08;;;;;;;4.30;3.90;;;25.50;48.20;;;;;;4973219;28;20408;-68
2023/07/08 10:35:36;;;;;;;4.40;4.00;;;25.50;48.20;;;;;;4973160;28;20485;-69
2023/07/08 10:38:20;;;;;;;3.90;3.27;;;25.50;48.20;;;;;;4973010;28;20440;-68
2023/07/08 10:40:52;;;;;;;4.20;3.80;;;25.50;48.20;;;;;;4973002;28;20925;-68
2023/07/08 10:43:42;;;;;;;4.10;3.40;;;25.50;48.20;;;;;;4971808;28;20839;-68
2023/07/08 10:46:19;;;;;;;5.10;3.77;;;25.50;48.20;;;;;;4972858;28;20433;-68
2023/07/08 10:49:05;;;;;;;4.50;4.10;;;25.50;48.20;;;;;;4972915;28;20491;-68
2023/07/08 10:51:51;;;;;;;3.67;3.33;;;25.50;48.30;;;;;;4973243;28;20397;-68
2023/07/08 10:54:33;;;;;;;3.77;3.47;;;25.50;48.30;;;;;;4973674;28;20821;-69
2023/07/08 10:57:33;;;;;;;4.40;3.83;;;25.50;48.30;;;;;;4976955;28;20491;-68
2023/07/08 11:00:19;;;;;;;4.20;3.90;;;25.50;48.30;;;;;;4977185;28;20445;-68
2023/07/08 11:02:59;;;;;;;4.37;3.97;;;25.50;48.30;;;;;;4976901;28;20533;-68
2023/07/08 11:05:41;;;;;;;3.47;3.17;;;25.50;48.30;;;;;;4976913;28;20393;-68
2023/07/08 11:08:40;;;;;;;3.27;2.97;;;25.50;48.30;;;;;;4976729;28;20470;-68
2023/07/08 11:11:21;;;;;;;3.63;3.33;;;25.50;48.30;;;;;;4976539;28;20459;-68
2023/07/08 11:13:55;;;;;;;3.77;3.37;;;25.50;48.30;;;;;;4976583;28;20401;-68
2023/07/08 11:16:32;;;;;;;3.80;3.40;;;25.50;48.30;;;;;;4976455;28;20404;-68
2023/07/08 11:19:23;;;;;;;3.80;3.40;;;25.50;48.30;;;;;;4976660;28;20404;-68
2023/07/08 11:21:57;;;;;;;4.10;3.60;;;25.50;48.30;;;;;;4976625;28;20400;-69
2023/07/08 11:24:44;;;;;;;3.83;3.43;;;25.50;48.30;;;;;;4976815;28;20458;-68
2023/07/08 11:27:30;;;;;;;4.03;3.50;;;25.50;48.30;;;;;;4975011;28;20444;-68
2023/07/08 11:30:01;;;;;;;3.73;3.33;;;25.50;48.30;;;;;;4976453;28;20820;-68
2023/07/08 11:32:29;;;;;;;3.17;2.90;;;25.40;48.80;;;;;;4976552;28;20412;-68
2023/07/08 11:34:58;;;;;;;4.03;3.63;;;25.50;48.30;;;;;;4976431;28;20405;-68
2023/07/08 11:37:25;;;;;;;4.80;4.13;;;25.50;48.30;;;;;;4976266;28;20795;-68
2023/07/08 11:39:59;;;;;;;4.80;3.90;;;25.50;48.30;;;;;;4976516;28;20793;-68
2023/07/08 11:42:36;;;;;;;5.10;3.70;;;25.50;48.20;;;;;;4976180;28;20420;-67
2023/07/08 11:45:14;;;;;;;4.33;3.80;;;25.50;48.30;;;;;;4976495;28;20393;-68
2023/07/08 11:47:46;;;;;;;3.90;3.50;;;25.50;48.30;;;;;;4976024;28;20809;-69
2023/07/08 11:50:36;;;;;;;3.90;3.30;;;25.50;48.20;;;;;;4976119;28;20444;-68
2023/07/08 11:53:06;;;;;;;5.00;3.57;;;25.50;48.20;;;;;;4976286;28;20482;-67
2023/07/08 11:55:59;;;;;;;3.97;3.57;;;25.50;48.30;;;;;;4975591;28;20400;-68
2023/07/08 11:58:49;;;;;;;3.70;3.40;;;25.50;48.30;;;;;;4975760;28;20853;-68
2023/07/08 12:01:14;;;;;;;4.43;3.93;;;25.50;48.30;;;;;;4975611;28;20938;-69
2023/07/08 12:03:48;;;;;;;5.77;3.50;;;25.50;48.30;;;;;;4975971;28;20505;-69
2023/07/08 12:06:26;;;;;;;4.37;3.43;;;25.50;48.30;;;;;;4974973;28;20209;-69
2023/07/08 12:08:57;;;;;;;4.73;3.80;;;25.50;48.30;;;;;;4975539;28;20415;-68
2023/07/08 12:11:33;;;;;;;3.93;3.50;;;25.50;48.30;;;;;;4975452;28;20527;-67
2023/07/08 12:14:01;;;;;;;4.20;3.90;;;25.50;48.20;;;;;;4975605;28;20901;-68
2023/07/08 12:16:29;;;;;;;4.17;3.77;;;25.50;48.30;;;;;;4974251;28;20427;-67
2023/07/08 12:18:56;;;;;;;4.60;3.67;;;25.50;48.30;;;;;;4975332;28;20440;-68
2023/07/08 12:21:23;;;;;;;3.07;2.67;;;25.50;48.20;;;;;;4975485;28;20409;-69
2023/07/08 12:23:48;;;;;;;4.27;3.87;;;25.50;48.30;;;;;;4975617;28;20791;-69
2023/07/08 12:26:15;;;;;;;5.83;3.70;;;25.50;48.20;;;;;;4975367;28;20418;-70
2023/07/08 12:28:42;;;;;;;6.43;3.60;;;25.50;48.20;;;;;;4975121;28;20189;-67
2023/07/08 12:31:20;;;;;;;6.43;3.43;;;25.50;48.20;;;;;;4973799;28;20456;-66
2023/07/08 12:33:47;;;;;;;8.40;3.83;;;25.50;48.20;;;;;;4975275;28;20499;-68
2023/07/08 12:36:24;;;;;;;3.60;3.30;;;25.50;48.20;;;;;;4974928;28;20413;-68
2023/07/08 12:38:50;;;;;;;4.00;3.60;;;25.50;48.20;;;;;;4975304;28;20933;-67
2023/07/08 12:41:23;;;;;;;7.40;4.67;;;25.50;48.20;;;;;;4974795;28;20424;-68
2023/07/08 12:43:49;;;;;;;5.23;3.60;;;25.50;48.30;;;;;;4974589;28;20886;-68
2023/07/08 12:46:17;;;;;;;5.50;3.73;;;25.50;48.20;;;;;;4974484;28;20464;-68
2023/07/08 12:48:43;;;;;;;5.27;4.03;;;25.50;48.30;;;;;;4974334;28;20437;-68
2023/07/08 12:51:21;;;;;;;4.50;4.10;;;25.50;48.30;;;;;;4974143;28;20548;-68
2023/07/08 12:53:48;;;;;;;5.07;4.10;;;25.50;48.30;;;;;;4974248;28;20168;-68
2023/07/08 12:56:14;;;;;;;6.37;4.00;;;25.50;48.30;;;;;;4974171;28;20413;-68
2023/07/08 12:58:44;;;;;;;4.53;3.93;;;25.50;48.30;;;;;;4973770;28;20461;-68
2023/07/08 13:01:17;;;;;;;4.17;3.77;;;25.50;48.30;;;;;;4973787;28;20457;-68